Time;durP1;ratioP1;P1;durP2;ratioP2;P2;SDS_P1;SDS_P2;PMS_P1;PMS_P2;Temp;Humidity;BMP_temperature;BMP_pressure;BME280_temperature;BME280_humidity;BME280_pressure;Samples;Min_cycle;Max_cycle;Signal;HPM_P1;HPM_P2
2023/04/14 00:01:14;;;;;;;1.10;0.10;;;4.30;99.90;;;;;;6193675;23;20016;-85
2023/04/14 00:03:41;;;;;;;0.20;0.20;;;4.30;99.90;;;;;;6218356;23;20042;-85
2023/04/14 00:06:06;;;;;;;0.52;0.30;;;4.30;99.90;;;;;;6144754;23;20059;-86
2023/04/14 00:08:34;;;;;;;0.00;0.00;;;4.30;99.90;;;;;;6218088;23;20024;-85
2023/04/14 00:11:00;;;;;;;0.30;0.20;;;4.20;99.90;;;;;;6218594;23;20340;-85
2023/04/14 00:13:26;;;;;;;1.00;0.50;;;4.30;99.90;;;;;;6217861;23;20017;-86
2023/04/14 00:15:52;;;;;;;0.20;0.10;;;4.20;99.90;;;;;;6168874;23;20329;-85
2023/04/14 00:18:17;;;;;;;0.17;0.17;;;3.50;99.90;;;;;;6193535;23;20016;-86
2023/04/14 00:20:43;;;;;;;0.10;0.07;;;4.10;99.90;;;;;;6193137;23;20069;-85
2023/04/14 00:23:09;;;;;;;0.10;0.10;;;3.70;99.90;;;;;;6218202;23;20020;-85
2023/04/14 00:25:35;;;;;;;0.10;0.10;;;4.90;99.90;;;;;;6218184;23;20016;-86
2023/04/14 00:28:00;;;;;;;0.23;0.23;;;4.10;99.90;;;;;;6244223;23;20530;-85
2023/04/14 00:30:26;;;;;;;0.00;0.00;;;4.10;99.90;;;;;;6193162;23;20020;-86
2023/04/14 00:32:52;;;;;;;0.00;0.00;;;4.10;99.90;;;;;;6193539;23;20055;-86
2023/04/14 00:35:18;;;;;;;0.10;0.10;;;4.10;99.90;;;;;;6218460;23;20020;-85
2023/04/14 00:37:43;;;;;;;0.43;0.30;;;4.10;99.90;;;;;;6168458;23;20054;-85
2023/04/14 00:40:09;;;;;;;0.00;0.00;;;4.10;99.90;;;;;;6220477;23;20013;-85
2023/04/14 00:42:45;;;;;;;0.27;0.27;;;4.10;99.90;;;;;;6195098;23;20554;-86
2023/04/14 00:45:12;;;;;;;0.35;0.25;;;4.00;99.90;;;;;;6220092;23;20012;-85
2023/04/14 00:47:39;;;;;;;0.32;0.15;;;4.00;99.90;;;;;;6219893;23;20020;-86
2023/04/14 00:50:05;;;;;;;0.17;0.15;;;3.90;99.90;;;;;;6220123;23;20023;-86
2023/04/14 00:52:31;;;;;;;0.63;0.35;;;3.90;99.90;;;;;;6219911;23;20099;-86
2023/04/14 00:54:58;;;;;;;0.53;0.20;;;3.80;99.90;;;;;;6220188;23;20052;-85
2023/04/14 00:57:26;;;;;;;0.00;0.00;;;4.80;99.90;;;;;;6195419;23;20020;-85
2023/04/14 00:59:52;;;;;;;0.20;0.20;;;3.70;99.90;;;;;;6195158;23;20100;-85
2023/04/14 01:02:18;;;;;;;0.13;0.10;;;3.60;99.90;;;;;;6219940;23;20051;-85
2023/04/14 01:04:45;;;;;;;0.03;0.03;;;3.60;99.90;;;;;;6194856;23;20016;-85
2023/04/14 01:07:11;;;;;;;0.70;0.70;;;3.50;99.90;;;;;;6220303;23;20020;-85
2023/04/14 01:09:39;;;;;;;0.52;0.20;;;3.60;99.90;;;;;;6146861;23;20375;-85
2023/04/14 01:12:14;;;;;;;0.40;0.30;;;3.50;99.90;;;;;;6220200;23;20016;-85
2023/04/14 01:15:05;;;;;;;0.28;0.10;;;3.50;99.90;;;;;;6219823;23;20397;-85
2023/04/14 01:17:50;;;;;;;0.52;0.10;;;3.50;99.90;;;;;;6194802;23;20020;-85
2023/04/14 01:20:41;;;;;;;0.57;0.57;;;3.40;99.90;;;;;;6220448;23;20051;-85
2023/04/14 01:23:11;;;;;;;0.10;0.10;;;2.90;99.90;;;;;;6201740;23;20050;-85
2023/04/14 01:25:55;;;;;;;0.40;0.40;;;3.30;99.90;;;;;;6219833;23;20341;-85
2023/04/14 01:28:43;;;;;;;0.70;0.10;;;3.30;99.90;;;;;;6220203;23;20391;-85
2023/04/14 01:31:16;;;;;;;0.28;0.10;;;3.20;99.90;;;;;;6220424;23;20377;-85
2023/04/14 01:33:45;;;;;;;0.20;0.10;;;3.20;99.90;;;;;;6194570;23;20074;-85
2023/04/14 01:36:23;;;;;;;0.10;0.10;;;3.20;99.90;;;;;;6219710;23;20012;-85
2023/04/14 01:38:51;;;;;;;0.05;0.03;;;3.10;99.90;;;;;;6194401;23;20023;-85
2023/04/14 01:41:20;;;;;;;0.52;0.30;;;3.10;99.90;;;;;;6219823;23;20012;-85
2023/04/14 01:43:52;;;;;;;0.30;0.30;;;3.10;99.90;;;;;;6194489;23;20071;-85
2023/04/14 01:46:20;;;;;;;0.05;0.05;;;3.00;99.90;;;;;;6219937;23;20024;-85
2023/04/14 01:48:48;;;;;;;0.35;0.10;;;3.00;99.90;;;;;;6219332;23;20104;-85
2023/04/14 01:51:17;;;;;;;0.13;0.10;;;3.00;99.90;;;;;;6219289;23;20034;-85
2023/04/14 01:53:44;;;;;;;0.10;0.10;;;3.00;99.90;;;;;;6219292;23;20023;-85
2023/04/14 01:56:14;;;;;;;0.40;0.20;;;3.70;99.90;;;;;;6219399;23;20012;-85
2023/04/14 01:58:41;;;;;;;1.65;0.30;;;3.10;99.90;;;;;;6219314;23;20348;-85
2023/04/14 02:01:07;;;;;;;0.13;0.10;;;3.50;99.90;;;;;;6219685;23;20012;-85
2023/04/14 02:03:34;;;;;;;0.30;0.30;;;3.80;99.90;;;;;;6219744;23;20024;-88
2023/04/14 02:06:02;;;;;;;0.25;0.20;;;3.20;99.90;;;;;;6169326;23;20023;-85
2023/04/14 02:08:30;;;;;;;0.40;0.40;;;3.30;99.90;;;;;;6219352;23;20099;-85
2023/04/14 02:10:57;;;;;;;0.08;0.08;;;3.30;99.90;;;;;;6194125;23;20559;-85
2023/04/14 02:13:26;;;;;;;0.93;0.15;;;3.40;99.90;;;;;;6219665;23;20016;-85
2023/04/14 02:15:52;;;;;;;0.40;0.30;;;3.40;99.90;;;;;;6194280;23;20012;-85
2023/04/14 02:18:23;;;;;;;0.82;0.50;;;3.50;99.90;;;;;;6194317;23;20656;-85
2023/04/14 02:20:52;;;;;;;0.25;0.10;;;3.50;99.90;;;;;;6193754;23;20051;-85
2023/04/14 02:23:18;;;;;;;0.20;0.20;;;3.60;99.90;;;;;;6194108;23;20024;-85
2023/04/14 02:25:59;;;;;;;0.10;0.10;;;3.60;99.90;;;;;;6169458;23;20012;-85
2023/04/14 02:28:30;;;;;;;0.10;0.10;;;3.70;99.90;;;;;;6219539;23;20019;-85
2023/04/14 02:31:00;;;;;;;0.13;0.13;;;3.10;99.90;;;;;;6219100;23;20610;-85
2023/04/14 02:33:33;;;;;;;0.88;0.35;;;4.40;99.90;;;;;;6219320;23;20012;-85
2023/04/14 02:36:08;;;;;;;0.10;0.10;;;4.20;99.90;;;;;;6218862;23;20020;-85
2023/04/14 02:39:06;;;;;;;0.15;0.15;;;3.50;99.90;;;;;;6219703;23;20020;-85
2023/04/14 02:41:34;;;;;;;0.85;0.60;;;3.60;99.90;;;;;;6162971;23;20337;-85
2023/04/14 02:44:17;;;;;;;0.10;0.10;;;3.60;99.90;;;;;;6193922;23;20012;-85
2023/04/14 02:47:02;;;;;;;0.10;0.10;;;3.60;99.90;;;;;;6218734;23;20095;-86
2023/04/14 02:49:35;;;;;;;0.30;0.10;;;3.60;99.90;;;;;;6219305;23;20027;-85
2023/04/14 02:52:06;;;;;;;0.20;0.15;;;3.60;99.90;;;;;;6219001;23;20642;-85
2023/04/14 02:54:35;;;;;;;0.10;0.10;;;3.60;99.90;;;;;;6193852;23;20016;-85
2023/04/14 02:57:02;;;;;;;0.75;0.25;;;3.60;99.90;;;;;;6218809;23;20532;-85
2023/04/14 02:59:30;;;;;;;0.47;0.35;;;3.60;99.90;;;;;;6194364;23;20451;-85
2023/04/14 03:02:00;;;;;;;0.13;0.10;;;3.40;99.90;;;;;;6218032;23;20016;-85
2023/04/14 03:04:29;;;;;;;0.22;0.20;;;3.60;99.90;;;;;;6219209;23;20020;-85
2023/04/14 03:06:57;;;;;;;0.10;0.10;;;3.70;99.90;;;;;;6218691;23;20051;-85
2023/04/14 03:09:24;;;;;;;0.68;0.15;;;3.70;99.90;;;;;;6194327;23;20051;-85
2023/04/14 03:11:50;;;;;;;;;;;3.70;99.90;;;;;;6219172;23;20027;-85
2023/04/14 03:14:18;;;;;;;0.05;0.05;;;4.00;99.90;;;;;;6193793;23;19915;-85
2023/04/14 03:16:45;;;;;;;0.10;0.10;;;3.70;99.90;;;;;;6193760;23;20016;-88
2023/04/14 03:19:12;;;;;;;0.20;0.13;;;3.70;99.90;;;;;;6219140;23;20020;-85
2023/04/14 03:21:38;;;;;;;0.00;0.00;;;4.20;99.90;;;;;;6218995;23;20471;-85
2023/04/14 03:24:05;;;;;;;0.23;0.10;;;3.70;99.90;;;;;;6193509;23;20016;-85
2023/04/14 03:26:33;;;;;;;0.32;0.15;;;3.70;99.90;;;;;;6193530;23;20357;-85
2023/04/14 03:29:04;;;;;;;0.10;0.03;;;3.70;99.90;;;;;;6218142;23;20016;-85
2023/04/14 03:31:35;;;;;;;0.22;0.22;;;3.70;99.90;;;;;;6193635;23;20408;-85
2023/04/14 03:34:03;;;;;;;0.10;0.10;;;2.80;99.90;;;;;;6218509;23;20020;-85
2023/04/14 03:36:30;;;;;;;0.40;0.13;;;3.70;99.90;;;;;;6193513;23;20012;-85
2023/04/14 03:39:00;;;;;;;0.10;0.10;;;3.70;99.90;;;;;;6193291;23;20030;-85
2023/04/14 03:41:26;;;;;;;0.13;0.13;;;3.70;99.90;;;;;;6194095;23;20023;-85
2023/04/14 03:43:56;;;;;;;0.10;0.10;;;5.00;99.90;;;;;;6218127;23;20055;-85
2023/04/14 03:46:23;;;;;;;0.22;0.10;;;3.80;99.90;;;;;;6219067;23;20023;-85
2023/04/14 03:48:50;;;;;;;;;;;2.80;99.90;;;;;;6218795;23;20027;-87
2023/04/14 03:51:18;;;;;;;0.20;0.15;;;3.60;99.90;;;;;;6218759;23;20316;-85
2023/04/14 03:53:45;;;;;;;0.52;0.28;;;3.60;99.90;;;;;;6193836;23;20024;-85
2023/04/14 03:56:12;;;;;;;0.10;0.10;;;3.60;99.90;;;;;;6217881;23;20016;-85
2023/04/14 03:58:40;;;;;;;0.38;0.10;;;3.60;99.90;;;;;;6193347;23;20078;-85
2023/04/14 04:01:06;;;;;;;0.20;0.20;;;3.50;99.90;;;;;;6218216;23;20027;-85
2023/04/14 04:03:37;;;;;;;0.20;0.20;;;3.50;99.90;;;;;;6218660;23;20506;-85
2023/04/14 04:06:03;;;;;;;0.50;0.20;;;3.40;99.90;;;;;;6218198;23;20012;-86
2023/04/14 04:08:31;;;;;;;0.40;0.40;;;3.40;99.90;;;;;;6218616;23;20470;-85
2023/04/14 04:10:58;;;;;;;0.17;0.17;;;4.30;99.90;;;;;;6192738;23;20452;-85
2023/04/14 04:13:25;;;;;;;0.40;0.38;;;3.30;99.90;;;;;;6218898;23;20016;-85
2023/04/14 04:15:51;;;;;;;0.30;0.10;;;3.20;99.90;;;;;;6217730;23;20024;-87
2023/04/14 04:18:18;;;;;;;0.10;0.10;;;3.30;99.90;;;;;;6193703;23;20020;-85
2023/04/14 04:20:47;;;;;;;0.13;0.13;;;3.20;99.90;;;;;;6168986;23;20310;-85
2023/04/14 04:23:16;;;;;;;0.93;0.57;;;3.10;99.90;;;;;;6218105;23;20020;-85
2023/04/14 04:25:42;;;;;;;0.20;0.10;;;3.10;99.90;;;;;;6193521;23;20016;-86
2023/04/14 04:28:08;;;;;;;1.20;0.43;;;3.50;99.90;;;;;;6218310;23;20050;-85
2023/04/14 04:30:41;;;;;;;0.30;0.20;;;3.10;99.90;;;;;;6193601;23;20478;-85
2023/04/14 04:33:07;;;;;;;0.28;0.10;;;3.00;99.90;;;;;;6193153;23;20047;-85
2023/04/14 04:35:34;;;;;;;0.13;0.13;;;3.00;99.90;;;;;;6193482;23;20016;-85
2023/04/14 04:38:00;;;;;;;0.75;0.35;;;3.00;99.90;;;;;;6192753;23;20024;-85
2023/04/14 04:40:26;;;;;;;0.47;0.40;;;3.00;99.90;;;;;;6193239;23;20012;-85
2023/04/14 04:42:54;;;;;;;0.10;0.10;;;3.70;99.90;;;;;;6193430;23;20047;-85
2023/04/14 04:45:42;;;;;;;0.30;0.20;;;3.00;99.90;;;;;;6194069;23;20020;-84
2023/04/14 04:48:08;;;;;;;;;;;3.00;99.90;;;;;;6193542;23;20016;-85
2023/04/14 04:50:34;;;;;;;0.20;0.15;;;3.00;99.90;;;;;;6193102;23;20381;-85
2023/04/14 04:52:59;;;;;;;0.20;0.10;;;3.40;99.90;;;;;;6193133;23;20047;-85
2023/04/14 04:55:25;;;;;;;0.10;0.10;;;2.90;99.90;;;;;;6193422;23;20071;-85
2023/04/14 04:57:51;;;;;;;0.03;0.03;;;2.90;99.90;;;;;;6193383;23;20090;-85
2023/04/14 05:00:17;;;;;;;1.53;0.60;;;2.90;99.90;;;;;;6192710;23;20028;-85
2023/04/14 05:02:43;;;;;;;0.20;0.20;;;3.00;99.90;;;;;;6168681;23;20016;-85
2023/04/14 05:05:09;;;;;;;0.40;0.40;;;3.00;99.90;;;;;;6168396;23;20082;-85
2023/04/14 05:07:34;;;;;;;0.00;0.00;;;2.90;99.90;;;;;;6144362;23;20020;-85
2023/04/14 05:10:00;;;;;;;0.90;0.40;;;2.90;99.90;;;;;;6193047;23;20344;-86
2023/04/14 05:12:26;;;;;;;0.10;0.10;;;2.90;99.90;;;;;;6218352;23;20016;-85
2023/04/14 05:14:52;;;;;;;0.15;0.15;;;2.90;99.90;;;;;;6218517;23;20700;-89
2023/04/14 05:17:18;;;;;;;0.10;0.10;;;2.90;99.90;;;;;;6217783;23;20060;-87
2023/04/14 05:19:43;;;;;;;0.00;0.00;;;2.90;99.90;;;;;;6193508;23;20105;-87
2023/04/14 05:22:09;;;;;;;0.13;0.13;;;3.00;99.90;;;;;;6168057;23;20428;-86
2023/04/14 05:24:35;;;;;;;0.97;0.10;;;2.80;99.90;;;;;;6218747;23;20012;-88
2023/04/14 05:27:01;;;;;;;0.10;0.10;;;2.90;99.90;;;;;;6194612;23;20020;-87
2023/04/14 05:29:30;;;;;;;0.08;0.08;;;2.80;99.90;;;;;;6219259;23;20401;-88
2023/04/14 05:31:56;;;;;;;0.20;0.20;;;2.80;99.90;;;;;;6219974;23;20020;-88
2023/04/14 05:34:21;;;;;;;0.07;0.07;;;2.50;99.90;;;;;;6194555;23;20043;-88
2023/04/14 05:36:50;;;;;;;0.10;0.10;;;2.90;99.90;;;;;;6194972;23;20039;-88
2023/04/14 05:39:16;;;;;;;0.10;0.10;;;2.90;99.90;;;;;;6194559;23;20150;-84
2023/04/14 05:41:41;;;;;;;0.03;0.03;;;2.90;99.90;;;;;;6219639;23;20048;-84
2023/04/14 05:44:07;;;;;;;0.30;0.30;;;2.90;99.90;;;;;;6169657;23;20024;-84
2023/04/14 05:46:33;;;;;;;0.53;0.33;;;3.50;99.90;;;;;;6194960;23;20020;-88
2023/04/14 05:48:59;;;;;;;0.00;0.00;;;3.00;99.90;;;;;;6194808;23;20078;-84
2023/04/14 05:51:26;;;;;;;0.52;0.25;;;3.30;99.90;;;;;;6219253;23;20051;-85
2023/04/14 05:53:52;;;;;;;0.63;0.35;;;3.00;99.90;;;;;;6220018;23;20340;-85
2023/04/14 05:56:18;;;;;;;0.27;0.20;;;3.00;99.90;;;;;;6219436;23;20154;-84
2023/04/14 05:58:46;;;;;;;0.20;0.00;;;3.50;99.90;;;;;;6220189;23;20344;-86
2023/04/14 06:01:12;;;;;;;0.15;0.15;;;3.10;99.90;;;;;;6194310;23;20043;-86
2023/04/14 06:03:37;;;;;;;0.30;0.20;;;4.50;99.90;;;;;;6194474;23;20476;-85
2023/04/14 06:06:03;;;;;;;0.30;0.30;;;3.30;99.90;;;;;;6194483;23;20012;-86
2023/04/14 06:08:31;;;;;;;0.17;0.08;;;3.40;99.90;;;;;;6219779;23;20016;-85
2023/04/14 06:11:00;;;;;;;0.73;0.20;;;3.70;99.90;;;;;;6194725;23;20020;-85
2023/04/14 06:13:25;;;;;;;0.10;0.10;;;4.30;99.90;;;;;;6170441;23;20012;-87
2023/04/14 06:15:51;;;;;;;0.37;0.37;;;4.70;99.90;;;;;;6219784;23;20093;-85
2023/04/14 06:18:17;;;;;;;0.00;0.00;;;5.10;99.90;;;;;;6194380;23;20016;-85
2023/04/14 06:20:43;;;;;;;0.40;0.30;;;5.70;99.90;;;;;;6194168;23;20016;-85
2023/04/14 06:23:08;;;;;;;0.13;0.13;;;5.90;99.90;;;;;;6218962;23;20035;-87
2023/04/14 06:25:34;;;;;;;0.30;0.20;;;6.30;99.90;;;;;;6194476;23;20020;-86
2023/04/14 06:28:02;;;;;;;0.20;0.20;;;6.70;99.90;;;;;;6194702;23;20012;-85
2023/04/14 06:30:30;;;;;;;0.50;0.47;;;7.00;99.90;;;;;;6193885;23;20392;-85
2023/04/14 06:32:57;;;;;;;0.25;0.25;;;7.30;99.90;;;;;;6219433;23;20026;-84
2023/04/14 06:35:22;;;;;;;0.43;0.30;;;7.60;99.90;;;;;;6218956;23;20030;-84
2023/04/14 06:37:49;;;;;;;0.43;0.43;;;7.90;99.90;;;;;;6219166;23;20098;-85
2023/04/14 06:40:15;;;;;;;0.80;0.73;;;8.20;99.90;;;;;;6194223;23;20020;-84
2023/04/14 06:42:40;;;;;;;0.55;0.20;;;8.50;99.90;;;;;;6246198;23;20375;-84
2023/04/14 06:45:07;;;;;;;0.20;0.17;;;8.80;99.90;;;;;;6219015;23;20020;-84
2023/04/14 06:47:32;;;;;;;0.30;0.30;;;9.10;99.90;;;;;;6145359;23;20027;-84
2023/04/14 06:49:58;;;;;;;0.30;0.30;;;9.30;99.90;;;;;;6169502;23;20020;-84
2023/04/14 06:52:24;;;;;;;0.60;0.60;;;9.60;99.90;;;;;;6218898;23;20448;-84
2023/04/14 06:54:49;;;;;;;0.37;0.20;;;9.90;99.90;;;;;;6218990;23;20024;-83
2023/04/14 06:57:17;;;;;;;0.45;0.10;;;10.10;99.90;;;;;;6218705;23;20449;-84
2023/04/14 06:59:43;;;;;;;0.20;0.20;;;10.30;99.90;;;;;;6219022;23;20043;-84
2023/04/14 07:02:09;;;;;;;0.10;0.10;;;10.50;99.90;;;;;;6217483;23;20017;-85
2023/04/14 07:04:36;;;;;;;0.05;0.05;;;10.70;99.90;;;;;;6218227;23;20254;-86
2023/04/14 07:07:02;;;;;;;0.20;0.20;;;11.00;99.90;;;;;;6218707;23;20016;-83
2023/04/14 07:09:28;;;;;;;0.13;0.13;;;11.10;99.90;;;;;;6218746;23;20024;-83
2023/04/14 07:11:55;;;;;;;0.25;0.25;;;11.30;99.90;;;;;;6194117;23;20019;-84
2023/04/14 07:14:22;;;;;;;0.22;0.22;;;11.50;99.90;;;;;;6218682;23;20340;-85
2023/04/14 07:16:47;;;;;;;0.45;0.20;;;11.60;99.90;;;;;;6219119;23;20026;-90
2023/04/14 07:19:14;;;;;;;0.20;0.10;;;11.80;99.90;;;;;;6218785;23;20020;-89
2023/04/14 07:21:40;;;;;;;0.20;0.10;;;11.90;99.90;;;;;;6218712;23;20455;-86
2023/04/14 07:24:05;;;;;;;0.30;0.30;;;12.10;99.90;;;;;;6194204;23;20016;-86
2023/04/14 07:26:31;;;;;;;0.10;0.10;;;12.20;99.90;;;;;;6218434;23;20387;-84
2023/04/14 07:28:57;;;;;;;0.08;0.08;;;12.40;99.90;;;;;;6193901;23;20023;-84
2023/04/14 07:31:23;;;;;;;1.08;0.28;;;12.50;99.90;;;;;;6245062;23;20016;-84
2023/04/14 07:33:48;;;;;;;0.10;0.10;;;12.70;99.90;;;;;;6193894;23;20031;-84
2023/04/14 07:36:14;;;;;;;0.45;0.20;;;12.90;99.90;;;;;;6193829;23;20344;-87
2023/04/14 07:38:40;;;;;;;0.10;0.10;;;13.00;99.90;;;;;;6193462;23;20474;-84
2023/04/14 07:41:06;;;;;;;0.03;0.03;;;13.10;99.90;;;;;;6193737;23;20525;-84
2023/04/14 07:43:35;;;;;;;0.10;0.10;;;13.30;99.90;;;;;;6193377;23;20325;-85
2023/04/14 07:46:03;;;;;;;0.20;0.20;;;13.30;99.90;;;;;;6193706;23;20094;-84
2023/04/14 07:48:30;;;;;;;0.20;0.10;;;13.40;99.90;;;;;;6244799;23;20095;-85
2023/04/14 07:50:57;;;;;;;0.20;0.10;;;13.50;99.90;;;;;;6193689;23;20031;-85
2023/04/14 07:53:23;;;;;;;0.00;0.00;;;13.60;99.90;;;;;;6217929;23;20020;-85
2023/04/14 07:55:49;;;;;;;0.20;0.15;;;13.70;99.90;;;;;;6218373;23;20024;-85
2023/04/14 07:58:15;;;;;;;0.20;0.20;;;13.90;99.90;;;;;;6194193;23;20020;-85
2023/04/14 08:00:41;;;;;;;0.55;0.55;;;14.10;99.90;;;;;;6245078;23;20012;-85
2023/04/14 08:03:07;;;;;;;1.80;0.32;;;14.20;99.90;;;;;;6218639;23;20027;-85
2023/04/14 08:05:33;;;;;;;0.05;0.05;;;14.10;99.90;;;;;;6193303;23;20106;-85
2023/04/14 08:07:58;;;;;;;0.28;0.10;;;14.00;99.90;;;;;;6218898;23;20376;-85
2023/04/14 08:10:31;;;;;;;0.25;0.13;;;14.10;99.90;;;;;;6193354;23;20024;-85
2023/04/14 08:12:56;;;;;;;0.35;0.10;;;14.30;99.90;;;;;;6219619;23;20024;-85
2023/04/14 08:15:23;;;;;;;0.38;0.17;;;14.10;99.90;;;;;;6218225;23;20016;-87
2023/04/14 08:17:49;;;;;;;1.38;0.20;;;14.30;99.90;;;;;;6193944;23;20444;-85
2023/04/14 08:20:15;;;;;;;0.00;0.00;;;14.30;99.90;;;;;;6193671;23;20019;-84
2023/04/14 08:22:42;;;;;;;0.05;0.05;;;13.80;99.90;;;;;;6244720;23;20482;-84
2023/04/14 08:25:10;;;;;;;0.08;0.08;;;14.60;99.90;;;;;;6193863;23;20019;-84
2023/04/14 08:27:37;;;;;;;0.00;0.00;;;14.80;99.90;;;;;;6193770;23;20016;-85
2023/04/14 08:30:04;;;;;;;1.20;0.38;;;15.00;99.90;;;;;;6194058;23;20020;-84
2023/04/14 08:32:30;;;;;;;0.52;0.13;;;15.20;99.90;;;;;;6193177;23;20087;-85
2023/04/14 08:34:56;;;;;;;1.10;0.10;;;15.20;99.90;;;;;;6218533;23;20052;-84
2023/04/14 08:37:22;;;;;;;1.40;0.20;;;15.30;99.90;;;;;;6193275;23;20020;-87
2023/04/14 08:39:48;;;;;;;0.10;0.10;;;15.30;99.90;;;;;;6245328;23;20036;-85
2023/04/14 08:42:15;;;;;;;0.20;0.20;;;15.20;99.90;;;;;;6218507;23;20016;-85
2023/04/14 08:44:41;;;;;;;0.20;0.20;;;15.30;99.90;;;;;;6217993;23;20341;-85
2023/04/14 08:47:08;;;;;;;0.10;0.10;;;15.50;99.90;;;;;;6218710;23;20433;-85
2023/04/14 08:49:44;;;;;;;0.52;0.15;;;15.50;99.90;;;;;;6219906;23;20028;-85
2023/04/14 08:52:11;;;;;;;0.10;0.10;;;15.50;99.90;;;;;;6218807;23;20464;-85
2023/04/14 08:54:42;;;;;;;0.28;0.10;;;15.60;99.90;;;;;;6192774;23;20012;-85
2023/04/14 08:57:12;;;;;;;0.20;0.20;;;15.70;99.90;;;;;;6193585;23;20024;-85
2023/04/14 08:59:40;;;;;;;0.10;0.00;;;15.80;99.90;;;;;;6244923;23;20095;-85
2023/04/14 09:02:08;;;;;;;0.03;0.03;;;15.70;99.90;;;;;;6219909;23;20108;-85
2023/04/14 09:04:36;;;;;;;0.13;0.13;;;15.70;99.90;;;;;;6220681;23;20078;-86
2023/04/14 09:07:02;;;;;;;0.55;0.08;;;15.80;99.90;;;;;;6170827;23;20020;-85
2023/04/14 09:09:31;;;;;;;1.08;0.20;;;15.90;99.90;;;;;;6194745;23;20023;-86
2023/04/14 09:11:57;;;;;;;0.10;0.10;;;15.80;99.90;;;;;;6195286;23;20444;-85
2023/04/14 09:14:23;;;;;;;0.10;0.10;;;15.80;99.90;;;;;;6194661;23;20051;-85
2023/04/14 09:16:52;;;;;;;0.10;0.10;;;15.80;99.90;;;;;;6194806;23;20026;-85
2023/04/14 09:19:20;;;;;;;0.22;0.20;;;15.90;99.90;;;;;;6220272;23;20024;-85
2023/04/14 09:21:46;;;;;;;0.10;0.10;;;15.90;99.90;;;;;;6219951;23;20016;-85
2023/04/14 09:24:11;;;;;;;0.20;0.10;;;15.90;99.90;;;;;;6195314;23;20016;-85
2023/04/14 09:26:37;;;;;;;0.10;0.10;;;16.20;99.90;;;;;;6220113;23;20037;-85
2023/04/14 09:29:03;;;;;;;0.00;0.00;;;16.30;99.90;;;;;;6220437;23;20023;-85
2023/04/14 09:31:29;;;;;;;0.40;0.20;;;16.40;99.90;;;;;;6219737;23;20056;-86
2023/04/14 09:33:56;;;;;;;0.30;0.20;;;16.60;99.90;;;;;;6220624;23;20399;-85
2023/04/14 09:36:22;;;;;;;;;;;16.40;99.90;;;;;;6195333;23;20044;-85
2023/04/14 09:38:49;;;;;;;0.43;0.10;;;15.90;99.90;;;;;;6189231;23;19955;-86
2023/04/14 09:41:16;;;;;;;0.00;0.00;;;16.60;99.90;;;;;;6215104;23;20428;-86
2023/04/14 09:43:42;;;;;;;0.35;0.35;;;16.50;99.90;;;;;;6216399;23;20200;-86
2023/04/14 09:46:09;;;;;;;0.15;0.15;;;16.40;99.90;;;;;;6189513;23;20020;-86
2023/04/14 09:48:47;;;;;;;0.80;0.30;;;16.50;99.90;;;;;;6214717;23;20457;-86
2023/04/14 09:51:13;;;;;;;0.22;0.20;;;16.60;99.90;;;;;;6215263;23;20023;-86
2023/04/14 09:53:40;;;;;;;0.22;0.20;;;16.30;99.90;;;;;;6213943;23;20021;-86
2023/04/14 09:56:06;;;;;;;;;;;16.00;99.90;;;;;;6215392;23;20421;-87
2023/04/14 09:58:40;;;;;;;0.20;0.20;;;16.00;99.90;;;;;;6214312;23;20233;-86
2023/04/14 10:01:14;;;;;;;0.25;0.25;;;16.10;99.90;;;;;;6215040;23;20018;-87
2023/04/14 10:03:45;;;;;;;0.30;0.10;;;15.90;99.90;;;;;;6214598;23;20059;-86
2023/04/14 10:06:21;;;;;;;0.13;0.10;;;15.80;99.90;;;;;;6215811;23;20459;-86
2023/04/14 10:08:50;;;;;;;0.20;0.20;;;15.90;99.90;;;;;;6189072;23;20013;-86
2023/04/14 10:11:17;;;;;;;0.10;0.10;;;16.00;99.90;;;;;;6214410;23;20024;-86
2023/04/14 10:14:02;;;;;;;0.10;0.10;;;16.10;99.90;;;;;;6215584;23;20456;-86
2023/04/14 10:16:28;;;;;;;0.10;0.10;;;16.20;99.90;;;;;;6189779;23;20035;-85
2023/04/14 10:18:57;;;;;;;0.20;0.20;;;16.50;99.90;;;;;;6189334;23;20329;-87
2023/04/14 10:21:24;;;;;;;0.08;0.08;;;16.50;99.90;;;;;;6214365;23;20016;-87
2023/04/14 10:23:50;;;;;;;0.10;0.10;;;16.60;99.90;;;;;;6214417;23;20095;-87
2023/04/14 10:26:17;;;;;;;;;;;16.30;99.90;;;;;;6190157;23;20048;-87
2023/04/14 10:28:49;;;;;;;0.80;0.20;;;16.40;99.90;;;;;;6189330;23;19985;-87
2023/04/14 10:31:37;;;;;;;0.10;0.10;;;16.60;99.90;;;;;;6216200;23;20016;-86
2023/04/14 10:34:11;;;;;;;0.57;0.15;;;16.60;99.90;;;;;;6214918;23;20023;-86
2023/04/14 10:36:37;;;;;;;0.50;0.20;;;16.60;99.90;;;;;;6189917;23;20176;-88
2023/04/14 10:39:04;;;;;;;0.10;0.10;;;16.60;99.90;;;;;;6220120;23;20027;-85
2023/04/14 10:41:46;;;;;;;0.30;0.30;;;16.50;99.90;;;;;;6194069;23;20023;-85
2023/04/14 10:44:31;;;;;;;0.10;0.10;;;16.80;99.90;;;;;;6219662;23;20079;-86
2023/04/14 10:47:01;;;;;;;0.90;0.25;;;16.80;99.90;;;;;;6219539;23;20275;-86
2023/04/14 10:49:34;;;;;;;0.20;0.20;;;16.80;99.90;;;;;;6219558;23;20016;-89
2023/04/14 10:52:05;;;;;;;0.25;0.20;;;16.90;99.90;;;;;;6219156;23;20437;-84
2023/04/14 10:54:49;;;;;;;0.35;0.17;;;16.80;99.90;;;;;;6219006;23;20016;-85
2023/04/14 10:57:16;;;;;;;0.15;0.15;;;16.50;99.90;;;;;;6218961;23;20016;-86
2023/04/14 10:59:42;;;;;;;0.20;0.20;;;16.40;99.90;;;;;;6245355;23;20091;-86
2023/04/14 11:02:53;;;;;;;1.23;1.13;;;16.60;99.90;;;;;;6218839;23;20062;-86
2023/04/14 11:05:20;;;;;;;0.20;0.20;;;16.60;99.90;;;;;;6069846;23;20033;-86
2023/04/14 11:07:49;;;;;;;0.28;0.20;;;16.70;99.90;;;;;;6225265;23;20016;-86
2023/04/14 11:10:21;;;;;;;0.20;0.10;;;16.80;99.90;;;;;;6218253;23;20134;-86
2023/04/14 11:12:53;;;;;;;0.43;0.10;;;17.20;99.90;;;;;;6193642;23;20020;-86
2023/04/14 11:15:19;;;;;;;0.10;0.10;;;17.50;99.90;;;;;;6218823;23;20020;-86
2023/04/14 11:17:45;;;;;;;0.63;0.35;;;17.50;99.90;;;;;;6218297;23;20074;-86
2023/04/14 11:20:19;;;;;;;2.47;0.50;;;17.50;99.90;;;;;;6193779;23;20308;-86
2023/04/14 11:22:48;;;;;;;0.25;0.10;;;17.50;99.90;;;;;;6217843;23;20012;-86
2023/04/14 11:25:16;;;;;;;0.10;0.10;;;17.50;99.90;;;;;;6244992;23;20045;-86
2023/04/14 11:27:43;;;;;;;0.25;0.20;;;17.60;99.90;;;;;;6218276;23;20024;-86
2023/04/14 11:30:14;;;;;;;0.20;0.20;;;17.50;99.90;;;;;;6245239;23;20023;-86
2023/04/14 11:32:49;;;;;;;0.45;0.20;;;17.20;99.90;;;;;;6245274;23;20020;-86
2023/04/14 11:35:15;;;;;;;0.43;0.13;;;17.60;99.90;;;;;;6245346;23;20035;-86
2023/04/14 11:37:41;;;;;;;0.30;0.30;;;17.80;99.90;;;;;;6218374;23;20023;-86
2023/04/14 11:40:09;;;;;;;0.15;0.15;;;17.50;99.90;;;;;;6218121;23;20012;-86
2023/04/14 11:42:35;;;;;;;0.25;0.25;;;17.10;99.90;;;;;;6218395;23;20008;-85
2023/04/14 11:45:06;;;;;;;0.45;0.35;;;16.70;99.90;;;;;;6193166;23;20138;-86
2023/04/14 11:47:31;;;;;;;0.20;0.20;;;16.50;99.90;;;;;;6244802;23;20016;-86
2023/04/14 11:50:01;;;;;;;0.73;0.20;;;16.10;99.90;;;;;;6192917;23;20012;-86
2023/04/14 11:52:27;;;;;;;0.22;0.22;;;15.90;99.90;;;;;;6218398;23;20016;-85
2023/04/14 11:54:55;;;;;;;0.20;0.10;;;15.90;99.90;;;;;;6193780;23;20384;-86
2023/04/14 11:57:21;;;;;;;0.30;0.10;;;16.20;99.90;;;;;;6168637;23;20020;-87
2023/04/14 11:59:47;;;;;;;0.57;0.15;;;16.30;99.90;;;;;;6192554;23;20031;-86
2023/04/14 12:02:19;;;;;;;0.10;0.10;;;16.30;99.90;;;;;;6244920;23;20083;-86
2023/04/14 12:04:49;;;;;;;0.10;0.10;;;16.50;99.90;;;;;;6218253;23;20020;-87
2023/04/14 12:07:18;;;;;;;0.43;0.43;;;16.60;99.90;;;;;;6169173;23;20016;-87
2023/04/14 12:09:47;;;;;;;0.20;0.20;;;16.80;99.90;;;;;;6218836;23;20016;-87
2023/04/14 12:12:17;;;;;;;0.50;0.30;;;16.60;99.90;;;;;;6193370;23;20016;-87
2023/04/14 12:14:48;;;;;;;0.10;0.10;;;16.50;99.90;;;;;;6218795;23;20016;-87
2023/04/14 12:17:19;;;;;;;0.00;0.00;;;16.20;99.90;;;;;;6246116;23;20332;-86
2023/04/14 12:19:44;;;;;;;0.10;0.10;;;16.10;99.90;;;;;;6218998;23;20444;-86
2023/04/14 12:22:10;;;;;;;0.10;0.10;;;16.00;99.90;;;;;;6193495;23;20091;-87
2023/04/14 12:24:38;;;;;;;0.13;0.13;;;15.90;99.90;;;;;;6169106;23;20039;-87
2023/04/14 12:27:05;;;;;;;0.10;0.10;;;15.80;99.90;;;;;;6217908;23;20023;-87
2023/04/14 12:29:38;;;;;;;0.10;0.10;;;15.70;99.90;;;;;;6196069;23;20027;-87
2023/04/14 12:32:11;;;;;;;0.60;0.32;;;15.50;99.90;;;;;;6193478;23;20078;-87
2023/04/14 12:34:37;;;;;;;0.57;0.38;;;15.30;99.90;;;;;;6220494;23;20535;-87
2023/04/14 12:37:10;;;;;;;0.20;0.20;;;15.20;99.90;;;;;;6247186;23;20332;-87
2023/04/14 12:39:59;;;;;;;0.30;0.20;;;15.40;99.90;;;;;;6220745;23;20444;-87
2023/04/14 12:42:46;;;;;;;0.55;0.47;;;15.30;99.90;;;;;;6220596;23;20019;-87
2023/04/14 12:45:13;;;;;;;0.40;0.40;;;15.20;99.90;;;;;;6220484;23;20456;-87
2023/04/14 12:47:38;;;;;;;;;;;15.20;99.90;;;;;;6196102;23;20456;-86
2023/04/14 12:50:28;;;;;;;0.40;0.40;;;15.40;99.90;;;;;;6220245;23;19916;-87
2023/04/14 12:52:58;;;;;;;0.20;0.20;;;15.40;99.90;;;;;;6196387;23;20130;-87
2023/04/14 12:55:29;;;;;;;0.17;0.17;;;15.30;99.90;;;;;;6171665;23;20027;-87
2023/04/14 12:57:59;;;;;;;0.85;0.43;;;15.10;99.90;;;;;;6220423;23;20024;-87
2023/04/14 13:00:26;;;;;;;0.20;0.20;;;14.80;99.90;;;;;;6195772;23;20020;-86